Time;durP1;ratioP1;P1;durP2;ratioP2;P2;SDS_P1;SDS_P2;PMS_P1;PMS_P2;Temp;Humidity;BMP_temperature;BMP_pressure;BME280_temperature;BME280_humidity;BME280_pressure;Samples;Min_cycle;Max_cycle;Signal;HPM_P1;HPM_P2
2023/03/22 00:01:14;;;;;;;1.52;1.27;;;10.10;88.30;;;;;;4981296;28;20019;-79
2023/03/22 00:03:40;;;;;;;1.95;1.55;;;10.10;88.50;;;;;;4982298;28;20023;-75
2023/03/22 00:06:06;;;;;;;1.20;1.10;;;10.00;88.70;;;;;;4979283;28;20034;-78
2023/03/22 00:08:32;;;;;;;1.17;1.08;;;10.00;88.90;;;;;;4978471;28;20062;-78
2023/03/22 00:10:58;;;;;;;0.98;0.93;;;10.00;89.00;;;;;;4978412;28;20162;-76
2023/03/22 00:13:23;;;;;;;1.27;1.10;;;10.00;89.20;;;;;;4979442;28;20054;-77
2023/03/22 00:15:49;;;;;;;0.80;0.80;;;9.90;89.30;;;;;;4980833;28;20042;-78
2023/03/22 00:18:15;;;;;;;1.23;1.13;;;9.90;89.50;;;;;;4979546;28;20034;-78
2023/03/22 00:20:52;;;;;;;1.40;1.17;;;9.90;89.70;;;;;;4978805;28;20058;-80
2023/03/22 00:23:19;;;;;;;1.42;1.20;;;9.90;89.90;;;;;;4979416;28;20031;-78
2023/03/22 00:25:46;;;;;;;1.40;1.30;;;9.90;90.00;;;;;;4977978;28;20027;-78
2023/03/22 00:28:13;;;;;;;3.17;1.85;;;9.90;90.00;;;;;;4975577;28;20027;-76
2023/03/22 00:30:39;;;;;;;1.50;1.40;;;9.90;90.00;;;;;;4976700;28;20027;-79
2023/03/22 00:33:06;;;;;;;1.10;1.00;;;10.00;90.00;;;;;;4977208;28;20173;-78
2023/03/22 00:35:32;;;;;;;1.05;1.00;;;10.00;89.90;;;;;;4978397;28;20066;-79
2023/03/22 00:38:05;;;;;;;0.70;0.70;;;10.10;89.80;;;;;;4981487;28;20031;-77
2023/03/22 00:40:34;;;;;;;1.40;1.30;;;10.10;89.80;;;;;;4982172;28;20034;-76
2023/03/22 00:42:59;;;;;;;1.30;1.20;;;10.10;89.50;;;;;;4981615;28;20543;-78
2023/03/22 00:45:25;;;;;;;1.33;1.23;;;10.20;89.40;;;;;;4980439;28;20034;-78
2023/03/22 00:47:52;;;;;;;1.48;1.30;;;10.20;89.30;;;;;;4981903;28;20078;-79
2023/03/22 00:50:18;;;;;;;1.10;1.00;;;10.30;89.40;;;;;;4981804;28;20657;-78
2023/03/22 00:52:43;;;;;;;1.10;1.00;;;10.30;89.30;;;;;;4985027;28;20077;-79
2023/03/22 00:55:09;;;;;;;1.08;0.98;;;10.30;89.00;;;;;;4985047;28;20107;-76
2023/03/22 00:57:35;;;;;;;0.98;0.98;;;10.30;89.10;;;;;;4984791;28;20053;-77
2023/03/22 01:00:08;;;;;;;0.98;0.98;;;10.40;89.00;;;;;;4985663;28;20030;-78
2023/03/22 01:02:34;;;;;;;0.98;0.98;;;10.30;88.80;;;;;;4984325;28;20077;-79
2023/03/22 01:04:59;;;;;;;1.30;1.20;;;10.40;88.70;;;;;;4981562;28;20027;-78
2023/03/22 01:07:25;;;;;;;1.30;1.20;;;10.30;88.40;;;;;;4983019;28;20041;-78
2023/03/22 01:09:51;;;;;;;1.17;1.08;;;10.40;88.50;;;;;;4964018;29;20040;-80
2023/03/22 01:12:18;;;;;;;1.42;1.08;;;10.30;88.40;;;;;;4966987;29;20027;-79
2023/03/22 01:14:44;;;;;;;1.50;1.40;;;10.30;88.40;;;;;;4975851;28;20028;-73
2023/03/22 01:17:10;;;;;;;1.13;0.95;;;10.30;88.50;;;;;;4979581;28;20038;-76
2023/03/22 01:19:36;;;;;;;1.08;1.05;;;10.30;88.50;;;;;;4995791;28;20042;-72
2023/03/22 01:22:03;;;;;;;1.63;1.10;;;10.30;88.50;;;;;;4999844;28;20027;-76
2023/03/22 01:24:29;;;;;;;1.30;1.20;;;10.30;88.50;;;;;;4999868;28;20035;-75
2023/03/22 01:26:55;;;;;;;1.30;1.20;;;10.20;88.60;;;;;;4998676;28;20023;-74
2023/03/22 01:29:21;;;;;;;1.58;1.48;;;10.20;88.60;;;;;;4994602;28;20034;-78
2023/03/22 01:31:46;;;;;;;1.20;1.10;;;10.20;88.60;;;;;;4984406;28;20135;-76
2023/03/22 01:34:12;;;;;;;1.88;1.42;;;10.20;88.70;;;;;;4986329;28;20061;-76
2023/03/22 01:36:37;;;;;;;1.48;1.10;;;10.20;88.90;;;;;;4990283;28;20031;-76
2023/03/22 01:39:03;;;;;;;1.65;1.20;;;10.20;88.90;;;;;;4985791;28;20532;-79
2023/03/22 01:41:33;;;;;;;1.00;0.88;;;10.10;88.90;;;;;;4988087;28;20049;-78
2023/03/22 01:44:09;;;;;;;1.23;0.90;;;10.10;89.20;;;;;;4992459;28;20034;-79
2023/03/22 01:46:35;;;;;;;1.10;1.00;;;10.10;89.20;;;;;;4981308;28;20364;-78
2023/03/22 01:49:03;;;;;;;1.52;1.33;;;10.10;89.40;;;;;;4982886;28;20027;-80
2023/03/22 01:51:30;;;;;;;1.30;1.20;;;10.10;89.50;;;;;;4981121;28;20042;-77
2023/03/22 01:54:00;;;;;;;1.20;1.10;;;10.10;89.60;;;;;;4980401;28;20037;-74
2023/03/22 01:56:29;;;;;;;1.30;1.20;;;10.10;89.80;;;;;;4979486;28;20073;-78
2023/03/22 01:58:56;;;;;;;1.30;1.30;;;10.00;90.00;;;;;;4980207;28;20027;-76
2023/03/22 02:01:22;;;;;;;1.42;1.33;;;10.00;90.00;;;;;;4979835;28;20077;-78
2023/03/22 02:04:05;;;;;;;1.73;1.58;;;9.90;90.10;;;;;;4980052;28;20143;-78
2023/03/22 02:06:36;;;;;;;1.40;1.30;;;9.90;90.20;;;;;;4979869;28;20022;-78
2023/03/22 02:09:08;;;;;;;2.22;1.60;;;9.80;90.40;;;;;;4979683;28;20068;-77
2023/03/22 02:11:40;;;;;;;1.83;1.55;;;9.70;90.60;;;;;;4980980;28;20030;-77
2023/03/22 02:14:08;;;;;;;;;;;9.60;90.80;;;;;;4979234;28;20030;-78
2023/03/22 02:17:11;;;;;;;1.33;1.23;;;9.50;91.10;;;;;;4978340;28;19906;-79
2023/03/22 02:20:28;;;;;;;1.48;1.30;;;9.40;91.30;;;;;;4978389;28;20550;-77
2023/03/22 02:22:56;;;;;;;1.88;1.38;;;9.30;91.60;;;;;;4967477;28;20069;-78
2023/03/22 02:25:22;;;;;;;1.40;1.30;;;9.20;91.80;;;;;;4979062;28;20022;-77
2023/03/22 02:28:12;;;;;;;1.10;1.00;;;9.20;91.90;;;;;;4981243;28;20073;-80
2023/03/22 02:31:11;;;;;;;1.77;1.30;;;9.10;92.10;;;;;;4980391;28;20030;-79
2023/03/22 02:33:49;;;;;;;2.00;1.25;;;9.10;92.30;;;;;;4979005;28;20092;-76
2023/03/22 02:36:15;;;;;;;1.30;1.20;;;9.10;92.40;;;;;;4978973;28;20046;-79
2023/03/22 02:39:05;;;;;;;1.95;1.30;;;9.10;92.90;;;;;;4979665;28;20027;-79
2023/03/22 02:42:07;;;;;;;1.42;1.17;;;9.00;92.70;;;;;;4978716;28;20027;-78
2023/03/22 02:44:55;;;;;;;1.20;0.93;;;9.00;92.90;;;;;;4975790;28;20074;-76
2023/03/22 02:47:33;;;;;;;1.02;0.93;;;8.90;93.10;;;;;;4979432;28;20506;-79
2023/03/22 02:50:21;;;;;;;0.98;0.98;;;8.90;93.30;;;;;;4979395;28;20029;-76
2023/03/22 02:53:26;;;;;;;3.17;1.23;;;8.90;93.80;;;;;;4978715;28;20050;-79
2023/03/22 02:56:04;;;;;;;1.25;1.02;;;8.90;93.70;;;;;;4949886;28;20043;-76
2023/03/22 02:58:52;;;;;;;1.08;0.98;;;8.90;93.90;;;;;;4977123;28;20060;-77
2023/03/22 03:01:35;;;;;;;1.40;1.30;;;8.80;94.10;;;;;;4977135;28;20073;-78
2023/03/22 03:04:04;;;;;;;1.10;1.00;;;8.80;94.30;;;;;;4977864;28;20031;-79
2023/03/22 03:06:34;;;;;;;1.45;1.35;;;8.80;94.50;;;;;;4978838;28;20453;-77
2023/03/22 03:09:03;;;;;;;1.45;1.20;;;8.80;94.60;;;;;;4979172;28;20030;-77
2023/03/22 03:11:30;;;;;;;1.10;1.00;;;8.80;94.80;;;;;;4977468;28;20059;-78
2023/03/22 03:13:56;;;;;;;1.52;1.40;;;8.80;94.90;;;;;;4978198;28;20704;-74
2023/03/22 03:16:26;;;;;;;1.08;0.98;;;8.70;94.90;;;;;;4979353;28;20110;-79
2023/03/22 03:18:57;;;;;;;1.15;1.08;;;8.80;95.10;;;;;;4977786;28;20031;-79
2023/03/22 03:21:31;;;;;;;0.82;0.80;;;8.70;95.10;;;;;;4978504;28;20142;-79
2023/03/22 03:24:25;;;;;;;0.95;0.90;;;8.70;95.30;;;;;;4979320;28;20110;-75
2023/03/22 03:27:35;;;;;;;0.70;0.70;;;8.70;95.40;;;;;;4978211;28;20063;-77
2023/03/22 03:30:04;;;;;;;1.30;1.10;;;8.60;95.60;;;;;;4975070;28;20081;-77
2023/03/22 03:32:51;;;;;;;1.08;1.00;;;8.60;95.80;;;;;;4975988;28;20042;-79
2023/03/22 03:35:22;;;;;;;1.85;1.40;;;8.60;96.00;;;;;;4958185;28;20050;-77
2023/03/22 03:38:13;;;;;;;3.70;1.40;;;8.60;96.10;;;;;;4973162;28;20027;-78
2023/03/22 03:40:43;;;;;;;1.10;0.95;;;8.60;96.20;;;;;;4952687;28;20527;-78
2023/03/22 03:43:10;;;;;;;1.23;1.13;;;8.50;96.30;;;;;;4978992;28;20018;-77
2023/03/22 03:45:36;;;;;;;1.38;1.05;;;8.50;96.40;;;;;;4975799;28;20054;-78
2023/03/22 03:48:10;;;;;;;1.25;1.10;;;8.50;96.50;;;;;;4977177;28;20027;-78
2023/03/22 03:50:36;;;;;;;1.33;1.00;;;8.50;96.50;;;;;;4978036;28;20049;-79
2023/03/22 03:53:04;;;;;;;0.85;0.70;;;8.50;96.70;;;;;;4977734;28;20054;-78
2023/03/22 03:55:30;;;;;;;1.15;1.00;;;8.50;96.70;;;;;;4977848;28;20089;-79
2023/03/22 03:57:56;;;;;;;0.98;0.88;;;8.50;96.80;;;;;;4977638;28;20507;-79
2023/03/22 04:00:22;;;;;;;1.30;0.82;;;8.40;96.90;;;;;;4975986;28;20030;-76
2023/03/22 04:02:47;;;;;;;0.70;0.70;;;8.40;97.00;;;;;;4976541;28;20472;-76
2023/03/22 04:05:13;;;;;;;0.80;0.80;;;8.40;97.10;;;;;;4976910;28;20041;-77
2023/03/22 04:07:40;;;;;;;0.98;0.80;;;8.30;97.20;;;;;;4977308;28;20059;-79
2023/03/22 04:10:06;;;;;;;0.70;0.70;;;8.30;97.40;;;;;;4979378;28;20034;-77
2023/03/22 04:12:32;;;;;;;0.82;0.82;;;8.30;97.50;;;;;;4982074;28;20169;-76
2023/03/22 04:14:58;;;;;;;0.70;0.68;;;8.30;97.60;;;;;;4983112;28;20046;-77
2023/03/22 04:17:24;;;;;;;0.93;0.88;;;8.20;97.60;;;;;;4983062;28;20027;-76
2023/03/22 04:19:52;;;;;;;0.88;0.88;;;8.20;97.70;;;;;;4983919;28;20027;-77
2023/03/22 04:22:18;;;;;;;0.50;0.50;;;8.20;97.80;;;;;;4983399;28;20058;-78
2023/03/22 04:24:49;;;;;;;0.68;0.68;;;8.20;97.90;;;;;;4984264;28;20428;-78
2023/03/22 04:27:19;;;;;;;0.93;0.82;;;8.20;98.00;;;;;;4988815;28;20391;-77
2023/03/22 04:29:47;;;;;;;0.80;0.80;;;8.20;98.00;;;;;;4993095;28;20049;-76
2023/03/22 04:32:17;;;;;;;2.30;0.82;;;8.20;98.00;;;;;;4998678;28;20400;-76
2023/03/22 04:34:45;;;;;;;0.82;0.82;;;8.20;98.10;;;;;;4997038;28;20058;-77
2023/03/22 04:37:11;;;;;;;1.30;1.08;;;8.20;98.20;;;;;;4996128;28;20031;-76
2023/03/22 04:39:37;;;;;;;0.90;0.80;;;8.20;98.20;;;;;;4996427;28;20382;-77
2023/03/22 04:42:03;;;;;;;0.90;0.90;;;8.20;98.30;;;;;;5000180;28;20031;-79
2023/03/22 04:44:29;;;;;;;1.58;0.98;;;8.20;98.10;;;;;;5003972;28;20049;-79
2023/03/22 04:46:54;;;;;;;0.65;0.65;;;8.20;98.10;;;;;;4998702;28;20455;-84
2023/03/22 04:49:20;;;;;;;1.75;0.90;;;8.20;98.10;;;;;;5001775;28;20027;-78
2023/03/22 04:51:47;;;;;;;0.95;0.70;;;8.20;98.10;;;;;;4994588;28;20411;-79
2023/03/22 04:54:13;;;;;;;1.00;0.70;;;8.20;98.10;;;;;;4984805;28;20033;-79
2023/03/22 04:56:38;;;;;;;0.90;0.68;;;8.30;98.10;;;;;;4990857;28;20125;-79
2023/03/22 04:59:04;;;;;;;0.88;0.73;;;8.30;98.00;;;;;;4969813;28;20039;-78
2023/03/22 05:01:36;;;;;;;1.08;0.98;;;8.30;97.90;;;;;;4984887;28;20062;-80
2023/03/22 05:04:02;;;;;;;1.13;1.02;;;8.30;97.90;;;;;;4982042;28;20435;-79
2023/03/22 05:06:31;;;;;;;1.23;0.75;;;8.30;97.90;;;;;;4985864;28;20026;-79
2023/03/22 05:08:58;;;;;;;1.80;0.63;;;8.20;97.90;;;;;;4991832;28;20023;-80
2023/03/22 05:11:26;;;;;;;1.05;0.80;;;8.20;97.90;;;;;;4990930;28;20062;-80
2023/03/22 05:13:53;;;;;;;1.27;0.65;;;8.20;97.80;;;;;;4992055;28;20034;-79
2023/03/22 05:16:19;;;;;;;1.00;0.60;;;8.20;97.80;;;;;;4991736;28;20062;-79
2023/03/22 05:18:45;;;;;;;0.70;0.70;;;8.10;97.80;;;;;;4987268;28;20031;-76
2023/03/22 05:21:14;;;;;;;0.85;0.85;;;8.10;97.90;;;;;;4982773;28;20146;-80
2023/03/22 05:23:41;;;;;;;0.77;0.63;;;8.10;97.90;;;;;;4982053;28;20027;-74
2023/03/22 05:26:07;;;;;;;1.00;0.90;;;8.10;98.00;;;;;;4977439;28;20023;-75
2023/03/22 05:28:34;;;;;;;0.50;0.50;;;8.10;98.10;;;;;;4977474;28;20361;-73
2023/03/22 05:31:00;;;;;;;0.85;0.68;;;8.10;98.10;;;;;;4977221;28;20038;-74
2023/03/22 05:33:26;;;;;;;0.52;0.52;;;8.10;98.20;;;;;;4979709;28;20034;-74
2023/03/22 05:35:52;;;;;;;0.70;0.70;;;8.10;98.10;;;;;;4976640;28;20380;-73
2023/03/22 05:38:18;;;;;;;0.63;0.50;;;8.20;98.00;;;;;;4977059;28;20035;-74
2023/03/22 05:40:45;;;;;;;0.65;0.60;;;8.20;98.00;;;;;;4976660;28;20042;-74
2023/03/22 05:43:11;;;;;;;0.55;0.55;;;8.30;97.90;;;;;;4975737;28;20030;-74
2023/03/22 05:45:37;;;;;;;0.50;0.50;;;8.30;97.80;;;;;;4975402;28;20023;-74
2023/03/22 05:48:03;;;;;;;0.80;0.63;;;8.30;97.70;;;;;;4977201;28;20023;-74
2023/03/22 05:50:29;;;;;;;0.50;0.50;;;8.40;97.60;;;;;;4976924;28;20049;-74
2023/03/22 05:52:55;;;;;;;0.68;0.65;;;8.40;97.50;;;;;;4976985;28;20022;-75
2023/03/22 05:55:21;;;;;;;0.60;0.60;;;8.40;97.50;;;;;;4982262;28;20041;-74
2023/03/22 05:57:50;;;;;;;0.57;0.57;;;8.40;97.40;;;;;;4980140;28;20105;-74
2023/03/22 06:00:17;;;;;;;0.50;0.50;;;8.50;97.40;;;;;;4975553;28;20118;-74
2023/03/22 06:02:47;;;;;;;0.70;0.70;;;8.50;97.30;;;;;;4977073;28;20027;-74
2023/03/22 06:05:16;;;;;;;0.73;0.70;;;8.50;97.20;;;;;;4977070;28;20019;-74
2023/03/22 06:07:42;;;;;;;1.30;0.60;;;8.50;97.20;;;;;;4977458;28;20424;-74
2023/03/22 06:10:11;;;;;;;0.73;0.73;;;8.60;97.10;;;;;;4976797;28;20026;-74
2023/03/22 06:12:37;;;;;;;0.73;0.70;;;8.60;97.00;;;;;;4976267;28;20054;-76
2023/03/22 06:15:03;;;;;;;0.68;0.68;;;8.70;97.00;;;;;;4983295;28;20022;-75
2023/03/22 06:17:29;;;;;;;0.70;0.70;;;8.70;96.90;;;;;;4973884;28;20031;-74
2023/03/22 06:19:55;;;;;;;1.65;1.00;;;8.70;96.80;;;;;;4975619;28;20031;-74
2023/03/22 06:22:21;;;;;;;2.47;1.42;;;8.80;96.70;;;;;;4978347;28;20034;-75
2023/03/22 06:24:47;;;;;;;1.58;1.20;;;8.90;96.50;;;;;;4981272;28;20026;-73
2023/03/22 06:27:13;;;;;;;1.98;1.30;;;8.90;96.30;;;;;;4979390;28;20097;-74
2023/03/22 06:29:39;;;;;;;1.38;1.10;;;9.00;96.10;;;;;;4964219;28;20480;-76
2023/03/22 06:32:05;;;;;;;1.20;1.10;;;9.10;96.00;;;;;;4972506;28;20097;-75
2023/03/22 06:34:32;;;;;;;1.25;1.08;;;9.10;95.70;;;;;;4979692;28;20050;-75
2023/03/22 06:36:58;;;;;;;1.27;1.02;;;9.30;95.50;;;;;;4974300;28;20027;-74
2023/03/22 06:39:24;;;;;;;0.77;0.77;;;9.30;95.30;;;;;;4978281;28;20105;-73
2023/03/22 06:41:50;;;;;;;1.15;0.80;;;9.40;95.00;;;;;;4977403;28;20066;-77
2023/03/22 06:44:16;;;;;;;1.13;1.00;;;9.50;94.80;;;;;;4976857;28;20019;-76
2023/03/22 06:46:41;;;;;;;1.17;0.98;;;9.60;94.40;;;;;;4977041;28;20046;-74
2023/03/22 06:49:07;;;;;;;1.55;1.05;;;9.70;94.10;;;;;;4962484;28;20050;-73
2023/03/22 06:51:33;;;;;;;2.90;1.30;;;9.80;93.70;;;;;;4976692;28;20030;-75
2023/03/22 06:54:55;;;;;;;1.85;0.88;;;9.90;93.40;;;;;;4981954;28;20034;-75
2023/03/22 06:57:54;;;;;;;0.80;0.80;;;10.10;93.10;;;;;;4966116;28;20046;-75
2023/03/22 07:00:20;;;;;;;0.90;0.90;;;10.20;92.60;;;;;;4972013;28;20285;-75
2023/03/22 07:02:46;;;;;;;0.90;0.90;;;10.30;92.30;;;;;;4975765;28;20078;-76
2023/03/22 07:05:12;;;;;;;1.15;1.00;;;10.40;92.00;;;;;;4975544;28;20023;-78
2023/03/22 07:07:37;;;;;;;0.88;0.80;;;10.40;91.70;;;;;;4975715;28;20521;-76
2023/03/22 07:10:04;;;;;;;1.02;0.90;;;10.60;91.50;;;;;;4976796;28;20081;-76
2023/03/22 07:12:29;;;;;;;1.17;0.90;;;10.70;91.10;;;;;;4975641;28;20018;-77
2023/03/22 07:14:55;;;;;;;1.35;0.90;;;10.80;90.70;;;;;;4975242;28;20062;-75
2023/03/22 07:17:21;;;;;;;0.82;0.73;;;11.00;90.40;;;;;;4975692;28;20019;-76
2023/03/22 07:19:46;;;;;;;1.08;0.98;;;11.10;90.10;;;;;;4975438;28;20389;-78
2023/03/22 07:22:12;;;;;;;0.70;0.70;;;11.30;89.10;;;;;;4977200;28;20468;-76
2023/03/22 07:24:37;;;;;;;0.65;0.55;;;11.40;88.20;;;;;;4975295;28;20194;-76
2023/03/22 07:27:03;;;;;;;0.70;0.63;;;11.50;87.70;;;;;;4975241;28;20027;-76
2023/03/22 07:29:29;;;;;;;0.68;0.65;;;11.60;87.10;;;;;;4975572;28;20023;-76
2023/03/22 07:31:55;;;;;;;0.43;0.43;;;11.80;86.20;;;;;;4974257;28;20026;-77
2023/03/22 07:34:30;;;;;;;0.60;0.60;;;12.00;85.40;;;;;;4975592;28;20058;-75
2023/03/22 07:36:58;;;;;;;0.93;0.75;;;12.10;84.50;;;;;;4976335;28;20035;-76
2023/03/22 07:39:24;;;;;;;1.30;1.20;;;12.30;83.80;;;;;;4974311;28;20026;-76
2023/03/22 07:41:50;;;;;;;2.72;1.15;;;12.40;83.10;;;;;;4981917;28;20023;-77
2023/03/22 07:44:16;;;;;;;0.93;0.80;;;12.40;82.60;;;;;;4990926;28;20550;-76
2023/03/22 07:46:42;;;;;;;1.00;0.88;;;12.50;82.20;;;;;;4985444;28;20031;-75
2023/03/22 07:49:08;;;;;;;1.20;1.10;;;12.60;81.50;;;;;;4985692;28;20024;-77
2023/03/22 07:51:34;;;;;;;0.95;0.95;;;12.70;80.80;;;;;;4984163;28;20039;-76
2023/03/22 07:54:03;;;;;;;1.60;1.13;;;12.80;80.30;;;;;;4980935;28;20034;-78
2023/03/22 07:56:29;;;;;;;1.20;1.08;;;13.10;79.60;;;;;;4977481;28;20062;-77
2023/03/22 07:58:57;;;;;;;2.58;1.67;;;13.20;78.60;;;;;;4976235;28;20022;-78
2023/03/22 08:01:23;;;;;;;2.15;1.40;;;13.40;77.50;;;;;;4976659;28;20091;-76
2023/03/22 08:03:49;;;;;;;1.33;1.23;;;13.50;76.60;;;;;;4976061;28;20150;-79
2023/03/22 08:06:18;;;;;;;2.15;1.30;;;13.60;75.90;;;;;;4977029;28;20046;-77
2023/03/22 08:08:44;;;;;;;2.25;1.30;;;13.80;75.40;;;;;;4978130;28;20503;-75
2023/03/22 08:11:11;;;;;;;1.80;1.08;;;13.90;74.70;;;;;;4977401;28;20027;-77
2023/03/22 08:13:37;;;;;;;2.30;1.50;;;14.10;74.00;;;;;;4979737;28;20448;-76
2023/03/22 08:16:23;;;;;;;4.00;1.50;;;14.20;73.50;;;;;;4982806;28;20022;-77
2023/03/22 08:18:52;;;;;;;1.55;1.38;;;14.40;72.80;;;;;;4980485;28;20037;-80
2023/03/22 08:21:23;;;;;;;2.10;1.40;;;14.60;72.50;;;;;;4980371;28;20066;-81
2023/03/22 08:23:49;;;;;;;3.35;1.88;;;14.80;72.10;;;;;;4964649;28;20034;-78
2023/03/22 08:26:16;;;;;;;1.55;1.45;;;15.00;71.50;;;;;;5377650;23;20045;-77
2023/03/22 08:28:42;;;;;;;2.30;2.10;;;15.10;71.00;;;;;;5027100;28;20018;-78
2023/03/22 08:31:14;;;;;;;2.42;1.98;;;15.30;70.60;;;;;;5031437;28;20469;-77
2023/03/22 08:33:40;;;;;;;3.65;2.28;;;15.50;70.10;;;;;;5032467;28;20025;-78
2023/03/22 08:36:11;;;;;;;2.05;1.77;;;15.60;69.40;;;;;;5022140;28;20030;-77
2023/03/22 08:38:41;;;;;;;2.58;2.17;;;15.80;68.80;;;;;;5005475;28;20394;-78
2023/03/22 08:41:06;;;;;;;2.78;1.80;;;15.90;67.90;;;;;;5003401;28;20419;-77
2023/03/22 08:43:32;;;;;;;4.57;3.60;;;15.90;67.40;;;;;;5020306;28;20483;-77
2023/03/22 08:45:58;;;;;;;3.72;2.70;;;16.10;66.80;;;;;;5017235;28;20133;-76
2023/03/22 08:51:44;;;;;;;1.65;1.55;;;16.30;66.30;;;;;;5008754;28;20044;-79
2023/03/22 08:54:40;;;;;;;3.45;2.00;;;16.50;65.70;;;;;;5037243;28;20060;-81
2023/03/22 08:57:08;;;;;;;1.70;1.40;;;16.70;64.70;;;;;;5018511;28;20058;-78
2023/03/22 08:59:34;;;;;;;3.35;2.88;;;16.90;64.00;;;;;;5031203;28;20068;-79
2023/03/22 09:02:00;;;;;;;2.33;2.13;;;17.00;63.20;;;;;;5042442;28;20029;-77
2023/03/22 09:04:26;;;;;;;2.35;1.92;;;17.00;63.00;;;;;;5003707;28;20017;-77
2023/03/22 09:06:54;;;;;;;3.20;2.20;;;17.10;62.70;;;;;;5031829;28;20030;-78
2023/03/22 09:09:19;;;;;;;3.65;2.10;;;17.30;62.20;;;;;;5033891;28;20041;-77
2023/03/22 09:11:48;;;;;;;2.03;1.90;;;17.40;61.90;;;;;;5035286;28;20038;-78
2023/03/22 09:14:14;;;;;;;2.42;1.95;;;17.60;61.00;;;;;;5025913;28;20032;-78
2023/03/22 09:16:39;;;;;;;4.57;2.03;;;17.70;60.40;;;;;;5022184;28;20452;-78
2023/03/22 09:19:06;;;;;;;4.35;2.22;;;17.70;59.90;;;;;;5018509;28;20101;-78
2023/03/22 09:21:31;;;;;;;4.00;2.38;;;17.90;59.40;;;;;;5020685;28;20034;-78
2023/03/22 09:23:57;;;;;;;4.18;1.95;;;17.90;58.80;;;;;;5021479;28;20509;-77
2023/03/22 09:26:23;;;;;;;2.75;2.10;;;17.90;58.50;;;;;;5026862;28;20108;-79
2023/03/22 09:28:49;;;;;;;1.88;1.60;;;18.00;58.70;;;;;;5026490;28;20106;-77
2023/03/22 09:31:15;;;;;;;1.98;1.88;;;18.10;58.30;;;;;;5030302;28;20083;-79
2023/03/22 09:33:41;;;;;;;3.08;2.00;;;18.10;57.50;;;;;;5028322;28;20625;-77
2023/03/22 09:36:08;;;;;;;1.80;1.60;;;18.30;56.80;;;;;;5034982;28;20041;-78
2023/03/22 09:38:35;;;;;;;2.63;2.30;;;18.30;56.30;;;;;;5038496;28;20033;-78
2023/03/22 09:41:16;;;;;;;2.90;1.60;;;18.30;55.70;;;;;;5034630;28;20053;-77
2023/03/22 09:43:48;;;;;;;1.50;1.13;;;18.40;55.60;;;;;;5003534;28;20052;-78
2023/03/22 09:46:18;;;;;;;0.90;0.88;;;18.40;55.50;;;;;;5028075;28;20036;-79
2023/03/22 09:48:49;;;;;;;1.13;1.08;;;18.60;55.00;;;;;;5040337;28;20068;-77
2023/03/22 09:51:38;;;;;;;1.25;1.15;;;18.70;54.40;;;;;;5034819;28;20021;-78
2023/03/22 09:54:34;;;;;;;1.73;1.10;;;18.80;53.80;;;;;;5025876;28;20025;-79
2023/03/22 09:57:27;;;;;;;2.70;1.50;;;18.80;53.70;;;;;;5024201;28;20161;-78
2023/03/22 10:00:29;;;;;;;2.17;1.73;;;18.90;53.10;;;;;;5023689;28;20036;-78
2023/03/22 10:03:13;;;;;;;2.22;1.55;;;18.90;52.70;;;;;;5036004;28;20026;-78
2023/03/22 10:06:17;;;;;;;2.38;1.35;;;18.80;53.00;;;;;;5021677;28;20113;-78
2023/03/22 10:08:48;;;;;;;2.42;1.65;;;18.80;53.00;;;;;;5035923;28;20025;-80
2023/03/22 10:11:36;;;;;;;2.30;1.70;;;18.90;52.70;;;;;;5033425;28;20022;-78
2023/03/22 10:14:27;;;;;;;5.35;2.15;;;18.90;52.70;;;;;;5021520;28;20768;-78
2023/03/22 10:16:55;;;;;;;1.95;1.77;;;19.10;52.00;;;;;;5016789;28;20050;-78
2023/03/22 10:19:28;;;;;;;2.45;1.60;;;19.10;52.30;;;;;;5019090;28;20395;-78
2023/03/22 10:21:56;;;;;;;1.90;1.38;;;19.10;52.20;;;;;;5005278;28;20036;-78
2023/03/22 10:24:30;;;;;;;2.42;1.38;;;19.30;52.00;;;;;;5006735;28;20029;-79
2023/03/22 10:26:56;;;;;;;2.08;1.35;;;19.40;51.80;;;;;;5033738;28;20025;-78
2023/03/22 10:29:26;;;;;;;1.95;1.48;;;19.60;51.30;;;;;;5036851;28;20372;-78
2023/03/22 10:31:53;;;;;;;1.58;1.25;;;19.70;51.00;;;;;;5023669;28;20021;-78
2023/03/22 10:34:28;;;;;;;1.58;1.48;;;19.90;50.90;;;;;;5019205;28;20034;-79
2023/03/22 10:36:54;;;;;;;1.20;1.10;;;20.00;50.10;;;;;;5027343;28;20109;-78
2023/03/22 10:39:27;;;;;;;2.15;1.50;;;20.70;50.00;;;;;;5046488;28;20018;-78
2023/03/22 10:41:55;;;;;;;1.25;1.15;;;21.60;48.00;;;;;;5032098;28;20022;-78
2023/03/22 10:44:24;;;;;;;1.08;1.08;;;22.00;46.70;;;;;;5021716;28;20013;-78
2023/03/22 10:46:51;;;;;;;1.50;1.40;;;21.80;46.50;;;;;;5045730;28;20026;-77
2023/03/22 10:49:30;;;;;;;2.20;1.55;;;21.50;46.30;;;;;;5024145;28;20018;-79
2023/03/22 10:52:02;;;;;;;1.38;1.27;;;21.10;46.90;;;;;;5027969;28;20034;-77
2023/03/22 10:54:28;;;;;;;;;;;20.70;47.60;;;;;;4993258;28;20089;-78
2023/03/22 10:56:53;;;;;;;2.00;1.50;;;20.60;47.90;;;;;;5023601;28;19917;-80
2023/03/22 10:59:46;;;;;;;2.97;1.33;;;20.60;47.30;;;;;;5019496;28;20537;-77
2023/03/22 11:02:22;;;;;;;;;;;20.60;46.60;;;;;;5037883;28;20030;-78
2023/03/22 11:04:53;;;;;;;1.25;0.80;;;20.60;46.50;;;;;;5035286;28;19935;-78
2023/03/22 11:07:43;;;;;;;0.80;0.80;;;20.60;46.50;;;;;;5048092;28;20037;-78
2023/03/22 11:10:10;;;;;;;0.70;0.70;;;20.70;46.40;;;;;;5040805;28;20101;-77
2023/03/22 11:12:48;;;;;;;0.95;0.90;;;20.80;45.70;;;;;;5005159;28;20053;-77
2023/03/22 11:15:34;;;;;;;1.05;0.98;;;20.80;45.90;;;;;;5042439;28;20032;-77
2023/03/22 11:18:06;;;;;;;1.27;1.10;;;20.70;45.60;;;;;;5030670;28;20050;-77
2023/03/22 11:20:33;;;;;;;1.92;1.00;;;20.70;45.60;;;;;;5030942;28;20031;-77
2023/03/22 11:23:03;;;;;;;1.75;1.15;;;20.60;45.80;;;;;;5046682;28;20032;-77
2023/03/22 11:25:32;;;;;;;1.05;1.00;;;20.70;45.80;;;;;;5030858;28;20084;-77
2023/03/22 11:28:03;;;;;;;1.45;1.00;;;20.70;45.90;;;;;;5024505;28;20030;-77
2023/03/22 11:30:30;;;;;;;1.23;1.13;;;20.70;46.10;;;;;;5028818;28;20037;-77
2023/03/22 11:33:17;;;;;;;1.27;1.17;;;20.80;45.70;;;;;;5014315;28;20097;-78
2023/03/22 11:35:45;;;;;;;2.28;1.23;;;21.00;44.70;;;;;;5018264;28;20072;-78
2023/03/22 11:38:30;;;;;;;2.28;1.20;;;21.40;44.10;;;;;;5028705;28;20112;-79
2023/03/22 11:41:01;;;;;;;1.02;0.95;;;22.00;43.40;;;;;;5009636;28;20033;-78
2023/03/22 11:43:31;;;;;;;3.50;1.77;;;22.40;42.80;;;;;;5021579;28;20478;-78
2023/03/22 11:45:58;;;;;;;1.90;1.40;;;22.50;42.10;;;;;;5019133;28;20473;-78
2023/03/22 11:48:27;;;;;;;2.35;1.13;;;22.10;42.10;;;;;;5035068;28;20105;-76
2023/03/22 11:50:57;;;;;;;1.23;1.10;;;21.70;43.00;;;;;;5015972;28;20167;-78
2023/03/22 11:53:25;;;;;;;1.60;1.50;;;21.70;43.40;;;;;;5019036;28;20025;-78
2023/03/22 11:55:55;;;;;;;2.30;1.42;;;21.80;43.10;;;;;;5027998;28;20061;-77
2023/03/22 11:58:28;;;;;;;1.73;1.38;;;22.00;43.00;;;;;;5021591;28;20029;-78
2023/03/22 12:00:58;;;;;;;1.50;1.40;;;22.10;42.60;;;;;;5017030;28;20033;-77
2023/03/22 12:03:29;;;;;;;2.55;1.83;;;22.20;42.60;;;;;;5018760;28;20042;-78
2023/03/22 12:05:59;;;;;;;3.53;1.98;;;22.10;42.40;;;;;;5005173;28;20520;-78
2023/03/22 12:08:43;;;;;;;2.47;1.27;;;21.90;42.80;;;;;;5007911;28;20033;-77
2023/03/22 12:11:19;;;;;;;2.05;1.95;;;21.70;43.00;;;;;;5022741;28;20105;-78
2023/03/22 12:13:48;;;;;;;1.85;1.70;;;21.70;43.10;;;;;;5017405;28;20030;-78
2023/03/22 12:16:20;;;;;;;1.80;1.33;;;21.40;44.10;;;;;;5019165;28;20041;-77
2023/03/22 12:18:56;;;;;;;1.65;0.80;;;21.20;44.80;;;;;;5027412;28;20502;-78
2023/03/22 12:21:22;;;;;;;1.65;0.90;;;21.20;44.90;;;;;;5005782;28;20026;-78
2023/03/22 12:23:48;;;;;;;1.92;1.45;;;21.20;44.70;;;;;;5016394;28;20105;-77
2023/03/22 12:26:22;;;;;;;2.85;1.50;;;21.30;44.20;;;;;;5014583;28;20037;-78
2023/03/22 12:29:14;;;;;;;1.50;1.40;;;21.30;44.20;;;;;;5030692;28;20068;-78
2023/03/22 12:32:03;;;;;;;2.45;1.25;;;21.20;44.50;;;;;;5035710;28;20025;-78
2023/03/22 12:34:40;;;;;;;2.15;1.52;;;21.20;44.30;;;;;;5027710;28;20092;-76
2023/03/22 12:37:10;;;;;;;1.20;1.10;;;21.30;44.10;;;;;;5021793;28;20029;-77
2023/03/22 12:39:45;;;;;;;1.50;1.23;;;21.30;44.40;;;;;;5029380;28;20037;-78
2023/03/22 12:42:24;;;;;;;0.75;0.75;;;21.40;44.10;;;;;;5031446;28;20018;-78
2023/03/22 12:44:55;;;;;;;2.45;1.30;;;21.30;44.20;;;;;;5020615;28;20026;-80
2023/03/22 12:47:26;;;;;;;1.35;1.25;;;21.40;44.00;;;;;;5020522;28;20026;-77
2023/03/22 12:50:04;;;;;;;1.13;0.90;;;21.40;43.90;;;;;;5025695;28;20116;-76
2023/03/22 12:52:41;;;;;;;1.90;0.70;;;21.40;43.80;;;;;;5010426;28;20032;-77
2023/03/22 12:55:16;;;;;;;1.05;0.73;;;21.50;43.80;;;;;;5035392;28;20124;-78
2023/03/22 12:57:42;;;;;;;0.75;0.63;;;21.70;43.60;;;;;;5039765;28;20037;-77
2023/03/22 13:00:14;;;;;;;0.65;0.65;;;21.80;43.60;;;;;;5005688;28;20034;-77
2023/03/22 13:02:57;;;;;;;1.20;1.10;;;21.80;43.10;;;;;;5015671;28;20030;-77
2023/03/22 13:05:28;;;;;;;0.50;0.50;;;21.90;42.40;;;;;;5011370;28;20024;-77
2023/03/22 13:07:56;;;;;;;0.60;0.60;;;22.00;42.30;;;;;;5022143;28;20532;-77
2023/03/22 13:10:35;;;;;;;1.00;0.90;;;22.30;42.40;;;;;;5045845;28;20033;-77
2023/03/22 13:13:21;;;;;;;1.48;0.80;;;22.60;41.90;;;;;;5022310;28;20014;-77